Time;durP1;ratioP1;P1;durP2;ratioP2;P2;SDS_P1;SDS_P2;PMS_P1;PMS_P2;Temp;Humidity;BMP_temperature;BMP_pressure;BME280_temperature;BME280_humidity;BME280_pressure;Samples;Min_cycle;Max_cycle;Signal;HPM_P1;HPM_P2
2023/11/19 00:01:12;;;;;;;5.38;3.85;;;1.90;99.90;;;;;;6180895;23;20214;-87
2023/11/19 00:03:43;;;;;;;5.28;4.78;;;1.90;99.90;;;;;;6178212;23;20193;-89
2023/11/19 00:06:11;;;;;;;5.93;2.88;;;1.90;99.90;;;;;;6150520;23;20191;-88
2023/11/19 00:08:38;;;;;;;3.63;3.42;;;1.90;99.90;;;;;;6162086;23;20222;-83
2023/11/19 00:11:05;;;;;;;3.00;2.80;;;1.80;99.90;;;;;;6190766;23;20208;-88
2023/11/19 00:13:32;;;;;;;5.95;5.38;;;1.80;99.90;;;;;;6193458;23;20166;-84
2023/11/19 00:16:04;;;;;;;11.05;4.82;;;1.80;99.90;;;;;;6242551;22;20177;-91
2023/11/19 00:18:32;;;;;;;3.80;3.17;;;1.80;99.90;;;;;;6242591;22;20176;-84
2023/11/19 00:20:59;;;;;;;6.93;4.95;;;1.80;99.90;;;;;;6242473;22;20176;-87
2023/11/19 00:23:26;;;;;;;4.70;4.30;;;1.80;99.90;;;;;;6241996;22;20192;-89
2023/11/19 00:25:54;;;;;;;5.95;3.83;;;1.90;99.90;;;;;;6242043;23;20172;-82
2023/11/19 00:28:21;;;;;;;3.13;2.97;;;1.90;99.90;;;;;;6240441;22;20484;-87
2023/11/19 00:30:49;;;;;;;3.83;3.65;;;1.90;99.90;;;;;;6214140;23;20172;-86
2023/11/19 00:33:16;;;;;;;3.72;3.42;;;1.80;99.90;;;;;;6230607;23;20200;-88
2023/11/19 00:35:43;;;;;;;2.05;1.95;;;1.80;99.90;;;;;;6228091;23;20180;-85
2023/11/19 00:38:10;;;;;;;2.63;2.42;;;1.80;99.90;;;;;;6227370;23;20172;-88
2023/11/19 00:40:40;;;;;;;6.57;6.10;;;1.80;99.90;;;;;;6231240;23;20187;-83
2023/11/19 00:43:07;;;;;;;7.60;2.75;;;2.10;99.90;;;;;;6230753;23;20231;-88
2023/11/19 00:45:35;;;;;;;13.70;6.22;;;1.80;99.90;;;;;;6208580;23;20168;-86
2023/11/19 00:48:02;;;;;;;6.85;5.18;;;1.90;99.90;;;;;;6230664;23;20274;-87
2023/11/19 00:50:31;;;;;;;4.13;3.17;;;1.80;99.90;;;;;;6231736;23;20176;-88
2023/11/19 00:53:03;;;;;;;14.90;6.18;;;1.80;99.90;;;;;;6208241;23;20180;-88
2023/11/19 00:55:30;;;;;;;5.68;5.18;;;1.80;99.90;;;;;;6230788;23;20206;-88
2023/11/19 00:57:57;;;;;;;5.03;4.53;;;1.70;99.90;;;;;;6228420;23;20588;-86
2023/11/19 01:00:27;;;;;;;9.60;5.75;;;1.70;99.90;;;;;;6234348;23;20189;-87
2023/11/19 01:02:54;;;;;;;4.15;3.95;;;1.60;99.90;;;;;;6230443;23;20172;-88
2023/11/19 01:05:22;;;;;;;7.82;7.15;;;1.60;99.90;;;;;;6200892;22;20200;-88
2023/11/19 01:10:28;;;;;;;7.23;6.33;;;1.40;99.90;;;;;;6179524;23;20188;-84
2023/11/19 01:15:27;;;;;;;2.72;2.63;;;1.40;99.90;;;;;;6176953;23;20234;-88
2023/11/19 01:17:54;;;;;;;18.52;7.47;;;1.40;99.90;;;;;;6202363;23;20236;-82
2023/11/19 01:20:22;;;;;;;2.97;2.75;;;1.30;99.90;;;;;;6200828;23;20235;-91
2023/11/19 01:25:25;;;;;;;11.32;3.80;;;1.30;99.90;;;;;;6201058;23;20611;-86
2023/11/19 01:27:52;;;;;;;3.97;3.72;;;1.30;99.90;;;;;;6204820;23;20192;-89
2023/11/19 01:30:19;;;;;;;5.43;4.85;;;1.30;99.90;;;;;;6177731;23;20163;-90
2023/11/19 01:32:46;;;;;;;3.83;2.65;;;1.30;99.90;;;;;;6201762;23;20233;-87
2023/11/19 01:35:14;;;;;;;5.85;5.32;;;1.20;99.90;;;;;;6202102;23;20181;-86
2023/11/19 01:37:41;;;;;;;4.72;4.35;;;1.20;99.90;;;;;;6203798;23;20191;-89
2023/11/19 01:42:51;;;;;;;4.10;3.80;;;1.30;99.90;;;;;;6164920;23;20271;-86
2023/11/19 01:45:31;;;;;;;7.22;6.35;;;1.30;99.90;;;;;;6132021;23;20426;-88
2023/11/19 01:48:01;;;;;;;6.45;5.85;;;1.30;99.90;;;;;;6146263;23;20162;-86
2023/11/19 01:50:30;;;;;;;5.68;5.20;;;1.20;99.90;;;;;;6141260;23;20189;-88
2023/11/19 01:52:57;;;;;;;3.63;3.42;;;1.20;99.90;;;;;;6148527;23;20198;-90
2023/11/19 01:55:30;;;;;;;4.72;4.28;;;1.60;99.90;;;;;;6174290;23;20189;-88
2023/11/19 01:58:00;;;;;;;4.20;3.85;;;1.30;99.90;;;;;;6170370;23;20177;-89
2023/11/19 02:00:27;;;;;;;5.63;5.22;;;1.20;99.90;;;;;;6171337;23;20181;-88
2023/11/19 02:08:26;;;;;;;4.68;4.45;;;1.20;99.90;;;;;;6183452;23;20264;-88
2023/11/19 02:10:57;;;;;;;4.53;3.65;;;1.20;99.90;;;;;;6156441;23;20222;-86
2023/11/19 02:13:28;;;;;;;5.40;5.07;;;1.20;99.90;;;;;;6185843;23;20197;-90
2023/11/19 02:15:55;;;;;;;8.50;6.75;;;1.30;99.90;;;;;;6124787;23;20209;-88
2023/11/19 02:18:30;;;;;;;5.18;4.78;;;1.30;99.90;;;;;;6141862;23;20279;-88
2023/11/19 02:20:59;;;;;;;5.95;5.43;;;1.30;99.90;;;;;;6149500;23;20158;-90
2023/11/19 02:23:30;;;;;;;6.43;3.65;;;1.30;99.90;;;;;;6158546;23;20201;-90
2023/11/19 02:26:24;;;;;;;7.50;4.97;;;1.30;99.90;;;;;;6158426;23;20228;-85
2023/11/19 02:28:53;;;;;;;8.30;7.70;;;1.30;99.90;;;;;;6207846;23;20153;-84
2023/11/19 02:31:22;;;;;;;6.15;5.68;;;1.30;99.90;;;;;;6176413;23;20180;-89
2023/11/19 02:33:56;;;;;;;5.50;4.53;;;1.30;99.90;;;;;;6140352;23;20209;-88
2023/11/19 02:36:23;;;;;;;5.55;5.25;;;1.30;99.90;;;;;;6169293;23;20227;-88
2023/11/19 02:38:51;;;;;;;8.25;7.50;;;1.30;99.90;;;;;;6143058;23;20170;-86
2023/11/19 02:41:18;;;;;;;5.00;4.68;;;1.30;99.90;;;;;;6147534;23;20213;-87
2023/11/19 02:43:45;;;;;;;2.90;2.33;;;1.30;99.90;;;;;;6179121;23;20174;-88
2023/11/19 02:51:18;;;;;;;4.40;4.18;;;1.20;99.90;;;;;;6151926;23;20202;-86
2023/11/19 02:53:48;;;;;;;6.78;6.35;;;1.20;99.90;;;;;;6148540;23;20228;-86
2023/11/19 02:56:20;;;;;;;7.72;7.00;;;1.20;99.90;;;;;;6123874;23;20216;-88
2023/11/19 02:58:48;;;;;;;3.42;3.30;;;1.20;99.90;;;;;;6154684;23;20201;-88
2023/11/19 03:03:56;;;;;;;5.88;5.38;;;1.30;99.90;;;;;;6177325;23;20222;-84
2023/11/19 03:06:27;;;;;;;5.43;5.10;;;1.30;99.90;;;;;;6205379;23;20160;-86
2023/11/19 03:08:57;;;;;;;3.45;3.25;;;1.20;99.90;;;;;;6200790;23;20177;-87
2023/11/19 03:11:24;;;;;;;4.72;4.28;;;1.20;99.90;;;;;;6201000;23;20216;-88
2023/11/19 03:13:51;;;;;;;25.52;4.30;;;1.20;99.90;;;;;;6200255;23;20273;-89
2023/11/19 03:16:18;;;;;;;2.03;1.92;;;1.20;99.90;;;;;;6201999;23;20199;-87
2023/11/19 03:18:46;;;;;;;7.28;6.78;;;1.20;99.90;;;;;;6154185;23;20193;-87
2023/11/19 03:21:16;;;;;;;2.92;2.80;;;1.20;99.90;;;;;;6185323;23;20201;-90
2023/11/19 03:23:43;;;;;;;4.53;4.22;;;1.20;99.90;;;;;;6181732;23;20164;-89
2023/11/19 03:26:11;;;;;;;7.57;5.97;;;1.20;99.90;;;;;;6168490;23;20215;-89
2023/11/19 03:28:39;;;;;;;3.60;3.30;;;1.20;99.90;;;;;;6140483;23;20209;-88
2023/11/19 03:31:09;;;;;;;4.97;4.57;;;1.20;99.90;;;;;;6150784;23;20220;-87
2023/11/19 03:33:37;;;;;;;3.20;3.05;;;1.20;99.90;;;;;;6170657;23;20202;-87
2023/11/19 03:36:05;;;;;;;3.55;3.35;;;1.20;99.90;;;;;;6182731;23;20197;-88
2023/11/19 03:41:14;;;;;;;6.00;4.47;;;1.20;99.90;;;;;;6209128;22;20213;-86
2023/11/19 03:43:41;;;;;;;5.18;4.70;;;1.20;99.90;;;;;;6157028;23;20193;-88
2023/11/19 03:46:35;;;;;;;3.08;2.95;;;1.20;99.90;;;;;;6172934;23;20184;-89
2023/11/19 03:49:04;;;;;;;2.88;2.63;;;1.20;99.90;;;;;;6169894;23;20201;-90
2023/11/19 03:51:31;;;;;;;5.35;5.05;;;1.20;99.90;;;;;;6170893;23;20174;-89
2023/11/19 03:53:59;;;;;;;5.03;4.68;;;1.20;99.90;;;;;;6173158;23;20574;-88
2023/11/19 03:59:09;;;;;;;5.95;5.45;;;1.20;99.90;;;;;;6164322;23;20197;-87
2023/11/19 04:01:42;;;;;;;6.68;4.20;;;1.20;99.90;;;;;;6188837;23;20188;-88
2023/11/19 04:04:12;;;;;;;6.90;5.35;;;1.20;99.90;;;;;;6206259;23;20222;-87
2023/11/19 04:06:40;;;;;;;1.40;1.40;;;1.20;99.90;;;;;;6181581;23;20172;-87
2023/11/19 04:09:08;;;;;;;5.28;4.82;;;1.20;99.90;;;;;;6183836;23;20172;-87
2023/11/19 04:11:36;;;;;;;2.08;1.98;;;1.20;99.90;;;;;;6198155;23;20220;-85
2023/11/19 04:14:03;;;;;;;13.50;7.68;;;1.20;99.90;;;;;;6210672;23;20204;-89
2023/11/19 04:16:30;;;;;;;8.18;6.28;;;1.30;99.90;;;;;;6184099;23;20176;-82
2023/11/19 04:18:57;;;;;;;2.25;1.98;;;1.30;99.90;;;;;;6185871;23;20161;-86
2023/11/19 04:21:24;;;;;;;4.10;3.80;;;1.20;99.90;;;;;;6196800;23;20212;-86
2023/11/19 04:23:51;;;;;;;4.55;4.20;;;1.20;99.90;;;;;;6211464;23;20165;-83
2023/11/19 04:26:18;;;;;;;3.83;3.53;;;1.30;99.90;;;;;;6199789;23;20201;-84
2023/11/19 04:28:45;;;;;;;5.90;5.50;;;1.30;99.90;;;;;;6210289;23;20196;-84
2023/11/19 04:33:48;;;;;;;8.13;3.42;;;1.30;99.90;;;;;;6199537;23;20224;-83
2023/11/19 04:36:19;;;;;;;3.65;3.40;;;1.30;99.90;;;;;;6200732;23;20223;-84
2023/11/19 04:38:46;;;;;;;6.32;5.25;;;1.30;99.90;;;;;;6212317;23;20152;-85
2023/11/19 04:41:14;;;;;;;6.22;5.72;;;1.30;99.90;;;;;;6170863;23;20272;-85
2023/11/19 04:43:41;;;;;;;6.45;6.07;;;1.30;99.90;;;;;;6209679;23;20172;-83
2023/11/19 04:48:51;;;;;;;4.78;4.38;;;1.30;99.90;;;;;;6200306;23;20196;-84
2023/11/19 04:51:18;;;;;;;4.38;4.18;;;1.30;99.90;;;;;;6185451;23;20412;-86
2023/11/19 04:53:45;;;;;;;5.88;4.13;;;1.40;99.90;;;;;;6209416;23;20204;-86
2023/11/19 04:56:13;;;;;;;1.05;1.05;;;1.40;99.90;;;;;;6202650;23;20173;-85
2023/11/19 04:58:42;;;;;;;3.25;2.95;;;1.40;99.90;;;;;;6178308;23;20185;-87
2023/11/19 05:01:17;;;;;;;4.38;4.03;;;1.50;99.90;;;;;;6203938;23;20204;-87
2023/11/19 05:03:47;;;;;;;3.85;3.55;;;1.40;99.90;;;;;;6204911;23;20169;-84
2023/11/19 05:06:15;;;;;;;3.60;3.25;;;1.50;99.90;;;;;;6200754;23;20216;-89
2023/11/19 05:08:42;;;;;;;2.22;2.13;;;1.50;99.90;;;;;;6202838;23;20181;-88
2023/11/19 05:11:11;;;;;;;3.83;3.53;;;1.50;99.90;;;;;;6177293;23;20498;-87
2023/11/19 05:13:38;;;;;;;7.22;6.72;;;1.50;99.90;;;;;;6203169;23;20193;-86
2023/11/19 05:16:06;;;;;;;2.75;2.65;;;1.60;99.90;;;;;;6201958;23;20177;-84
2023/11/19 05:18:33;;;;;;;8.32;2.55;;;1.60;99.90;;;;;;6201879;23;20179;-86
2023/11/19 05:21:00;;;;;;;5.28;4.38;;;1.60;99.90;;;;;;6204468;23;20184;-85
2023/11/19 05:23:30;;;;;;;1.50;1.48;;;1.60;99.90;;;;;;6204973;23;20184;-88
2023/11/19 05:25:58;;;;;;;2.15;2.05;;;1.60;99.90;;;;;;6206976;23;20200;-83
2023/11/19 05:28:25;;;;;;;4.35;4.07;;;1.70;99.90;;;;;;6205419;23;20177;-82
2023/11/19 05:30:53;;;;;;;1.95;1.85;;;1.70;99.90;;;;;;6202377;23;20173;-87
2023/11/19 05:33:20;;;;;;;1.65;1.55;;;1.60;99.90;;;;;;6202491;23;20553;-89
2023/11/19 05:35:47;;;;;;;4.03;3.83;;;1.70;99.90;;;;;;6204523;23;20185;-89
2023/11/19 05:38:15;;;;;;;2.63;1.63;;;1.70;99.90;;;;;;6199787;23;20665;-85
2023/11/19 05:40:43;;;;;;;15.18;5.00;;;1.70;99.90;;;;;;6173288;23;20177;-81
2023/11/19 05:43:10;;;;;;;3.88;3.60;;;1.70;99.90;;;;;;6200064;23;20237;-88
2023/11/19 05:45:37;;;;;;;6.15;5.63;;;1.80;99.90;;;;;;6202094;23;20180;-89
2023/11/19 05:48:04;;;;;;;4.22;3.97;;;1.80;99.90;;;;;;6174987;23;20169;-87
2023/11/19 05:50:31;;;;;;;4.38;3.63;;;1.90;99.90;;;;;;6205321;23;20196;-84
2023/11/19 05:52:58;;;;;;;4.95;4.65;;;1.90;99.90;;;;;;6205606;23;20208;-88
2023/11/19 05:55:27;;;;;;;6.57;2.63;;;1.80;99.90;;;;;;6177489;23;20200;-88
2023/11/19 05:57:57;;;;;;;8.50;6.85;;;1.90;99.90;;;;;;6205343;23;20180;-88
2023/11/19 06:00:26;;;;;;;2.17;2.05;;;1.90;99.90;;;;;;6194830;23;20417;-85
2023/11/19 06:02:53;;;;;;;1.35;1.35;;;1.90;99.90;;;;;;6202459;23;20173;-84
2023/11/19 06:05:21;;;;;;;5.60;4.85;;;1.90;99.90;;;;;;6199747;23;20196;-89
2023/11/19 06:07:48;;;;;;;3.53;3.33;;;1.90;99.90;;;;;;6202673;23;20171;-90
2023/11/19 06:13:05;;;;;;;2.13;1.45;;;2.00;99.90;;;;;;6205705;23;20204;-86
2023/11/19 06:18:01;;;;;;;2.55;2.35;;;2.00;99.90;;;;;;6174410;23;20980;-82
2023/11/19 06:20:33;;;;;;;4.00;3.58;;;2.10;99.90;;;;;;6158571;23;20224;-84
2023/11/19 06:23:03;;;;;;;2.75;2.55;;;2.20;99.90;;;;;;6185708;23;20177;-87
2023/11/19 06:25:32;;;;;;;3.75;3.55;;;2.10;99.90;;;;;;6208595;23;20183;-87
2023/11/19 06:28:03;;;;;;;1.30;1.30;;;2.00;99.90;;;;;;6185300;23;20204;-85
2023/11/19 06:30:32;;;;;;;3.72;3.42;;;2.00;99.90;;;;;;6210194;23;20195;-87
2023/11/19 06:33:03;;;;;;;2.15;2.05;;;2.00;99.90;;;;;;6151701;23;20202;-85
2023/11/19 06:35:35;;;;;;;12.05;3.03;;;2.00;99.90;;;;;;6164183;23;20201;-85
2023/11/19 06:38:06;;;;;;;10.45;2.75;;;2.10;99.90;;;;;;6175538;23;20150;-88
2023/11/19 06:40:37;;;;;;;6.60;6.03;;;2.10;99.90;;;;;;6130741;23;20214;-86
2023/11/19 06:43:08;;;;;;;3.55;3.28;;;2.10;99.90;;;;;;6165307;23;20284;-85
2023/11/19 06:48:22;;;;;;;2.92;1.80;;;2.10;99.90;;;;;;6148549;23;20179;-87
2023/11/19 06:50:49;;;;;;;11.95;4.15;;;2.10;99.90;;;;;;6142733;23;20194;-88
2023/11/19 06:53:19;;;;;;;3.33;3.15;;;2.20;99.90;;;;;;6144590;23;20403;-84
2023/11/19 06:58:25;;;;;;;1.65;1.52;;;2.20;99.90;;;;;;6175196;23;20184;-85
2023/11/19 07:00:52;;;;;;;3.42;3.13;;;2.30;99.90;;;;;;6147719;23;20166;-82
2023/11/19 07:03:22;;;;;;;2.78;1.75;;;2.40;99.90;;;;;;6174408;23;20184;-92
2023/11/19 07:05:49;;;;;;;2.25;1.92;;;2.40;99.90;;;;;;6173992;23;20181;-83
2023/11/19 07:08:16;;;;;;;0.55;0.55;;;2.40;99.90;;;;;;6173124;23;20180;-87
2023/11/19 07:10:43;;;;;;;2.38;2.17;;;2.50;99.90;;;;;;6172828;23;20180;-86
2023/11/19 07:13:10;;;;;;;1.85;1.75;;;2.50;99.90;;;;;;6175040;23;20217;-87
2023/11/19 07:15:43;;;;;;;6.78;3.00;;;2.60;99.90;;;;;;6174364;23;20197;-89
2023/11/19 07:18:13;;;;;;;1.10;1.10;;;2.60;99.90;;;;;;6172676;23;20157;-88
2023/11/19 07:20:41;;;;;;;1.65;1.65;;;2.70;99.90;;;;;;6150813;23;20197;-90
2023/11/19 07:23:16;;;;;;;2.42;2.33;;;2.70;99.90;;;;;;6146298;23;20361;-86
2023/11/19 07:25:46;;;;;;;3.20;3.00;;;2.70;99.90;;;;;;6123438;23;20253;-86
2023/11/19 07:28:14;;;;;;;1.13;1.13;;;2.70;99.90;;;;;;6122489;23;20172;-85
2023/11/19 07:30:41;;;;;;;1.80;1.70;;;2.80;99.90;;;;;;6146950;23;20173;-86
2023/11/19 07:33:08;;;;;;;1.05;0.98;;;2.80;99.90;;;;;;6122667;23;20229;-86
2023/11/19 07:35:36;;;;;;;3.45;3.25;;;2.90;99.90;;;;;;6146859;23;20174;-89
2023/11/19 07:38:03;;;;;;;1.45;1.35;;;3.00;99.90;;;;;;6152655;23;20201;-84
2023/11/19 07:40:30;;;;;;;3.03;2.85;;;2.90;99.90;;;;;;6164258;23;20235;-86
2023/11/19 07:42:59;;;;;;;3.80;3.50;;;2.90;99.90;;;;;;6237869;22;20161;-86
2023/11/19 07:45:27;;;;;;;3.13;2.28;;;2.90;99.90;;;;;;6212415;23;20172;-87
2023/11/19 07:47:54;;;;;;;1.02;1.02;;;2.90;99.90;;;;;;6240565;23;20169;-84
2023/11/19 07:50:22;;;;;;;3.40;3.20;;;2.90;99.90;;;;;;6215684;22;20220;-85
2023/11/19 07:52:48;;;;;;;1.52;1.45;;;2.70;99.90;;;;;;6241057;23;20183;-86
2023/11/19 07:55:15;;;;;;;2.15;1.98;;;2.90;99.90;;;;;;6236481;23;20180;-87
2023/11/19 07:57:42;;;;;;;1.30;1.20;;;2.90;99.90;;;;;;6234592;23;20179;-83
2023/11/19 08:00:12;;;;;;;1.25;1.23;;;2.90;99.90;;;;;;6234014;23;20184;-87
2023/11/19 08:02:39;;;;;;;1.88;1.77;;;2.90;99.90;;;;;;6233388;23;20176;-88
2023/11/19 08:05:08;;;;;;;5.38;4.82;;;2.90;99.90;;;;;;6232481;23;20172;-87
2023/11/19 08:07:36;;;;;;;7.38;3.40;;;2.90;99.90;;;;;;6234120;23;20228;-85
2023/11/19 08:10:05;;;;;;;1.45;1.33;;;2.90;99.90;;;;;;6208767;23;20172;-86
2023/11/19 08:12:35;;;;;;;0.70;0.70;;;2.80;99.90;;;;;;6233065;23;20180;-88
2023/11/19 08:15:04;;;;;;;2.15;2.05;;;2.90;99.90;;;;;;6235159;23;20195;-89
2023/11/19 08:17:31;;;;;;;4.03;2.67;;;2.80;99.90;;;;;;6239314;22;20207;-85
2023/11/19 08:20:00;;;;;;;2.28;2.17;;;2.90;99.90;;;;;;6239488;23;20180;-85
2023/11/19 08:22:27;;;;;;;1.00;0.98;;;2.80;99.90;;;;;;6233728;23;20192;-89
2023/11/19 08:24:54;;;;;;;1.67;1.58;;;2.80;99.90;;;;;;6232557;23;20204;-86
2023/11/19 08:27:26;;;;;;;1.25;1.25;;;2.80;99.90;;;;;;6232770;23;20184;-86
2023/11/19 08:29:56;;;;;;;4.65;3.53;;;2.80;99.90;;;;;;6230076;23;20184;-85
2023/11/19 08:32:25;;;;;;;1.80;1.67;;;2.60;99.90;;;;;;6229329;23;20172;-86
2023/11/19 08:34:52;;;;;;;2.67;2.47;;;2.70;99.90;;;;;;6203262;23;20256;-89
2023/11/19 08:37:21;;;;;;;3.10;2.03;;;2.60;99.90;;;;;;6229823;23;20209;-87
2023/11/19 08:39:51;;;;;;;1.63;1.52;;;2.50;99.90;;;;;;6231441;23;20296;-85
2023/11/19 08:42:18;;;;;;;2.22;2.05;;;2.70;99.90;;;;;;6178987;23;20188;-85
2023/11/19 08:44:50;;;;;;;1.27;1.27;;;2.50;99.90;;;;;;6231450;23;20176;-84
2023/11/19 08:47:17;;;;;;;2.33;2.22;;;2.50;99.90;;;;;;6229443;23;20172;-87
2023/11/19 08:49:46;;;;;;;1.88;1.77;;;2.40;99.90;;;;;;6231539;23;20218;-86
2023/11/19 08:52:28;;;;;;;2.47;2.28;;;2.40;99.90;;;;;;6232018;23;20188;-84
2023/11/19 08:55:05;;;;;;;1.67;1.58;;;2.30;99.90;;;;;;6232735;23;20207;-84
2023/11/19 08:57:34;;;;;;;3.17;2.97;;;2.30;99.90;;;;;;6231081;23;20173;-89
2023/11/19 09:00:07;;;;;;;0.80;0.80;;;2.30;99.90;;;;;;6231115;23;20196;-86
2023/11/19 09:02:37;;;;;;;3.03;2.83;;;2.30;99.90;;;;;;6229979;23;20161;-86
2023/11/19 09:05:07;;;;;;;3.72;3.25;;;2.30;99.90;;;;;;6206252;22;20180;-83
2023/11/19 09:07:35;;;;;;;2.30;2.20;;;2.40;99.90;;;;;;6203138;23;20177;-80
2023/11/19 09:10:04;;;;;;;2.08;1.98;;;2.40;99.90;;;;;;6230216;23;20178;-85
2023/11/19 09:12:31;;;;;;;2.25;2.15;;;2.30;99.90;;;;;;6218016;22;20208;-84
2023/11/19 09:14:59;;;;;;;1.40;1.30;;;2.40;99.90;;;;;;6230413;23;20208;-87
2023/11/19 09:17:25;;;;;;;2.70;1.85;;;2.50;99.90;;;;;;6231328;23;20156;-86
2023/11/19 09:19:53;;;;;;;0.80;0.80;;;2.50;99.90;;;;;;6230521;23;20172;-87
2023/11/19 09:22:20;;;;;;;2.55;2.35;;;2.60;99.90;;;;;;6198977;23;20187;-82
2023/11/19 09:24:48;;;;;;;2.53;2.33;;;2.60;99.90;;;;;;6227852;23;20188;-83
2023/11/19 09:27:15;;;;;;;2.38;2.28;;;2.60;99.90;;;;;;6228180;23;20244;-84
2023/11/19 09:29:43;;;;;;;0.85;0.85;;;2.80;99.90;;;;;;6201116;23;20242;-83
2023/11/19 09:32:10;;;;;;;1.10;1.10;;;2.80;99.90;;;;;;6244695;22;20220;-87
2023/11/19 09:34:36;;;;;;;1.42;1.33;;;2.80;99.90;;;;;;6294347;22;20261;-84
2023/11/19 09:37:04;;;;;;;2.20;2.10;;;2.90;99.90;;;;;;6294422;22;20163;-82
2023/11/19 09:39:47;;;;;;;1.42;1.15;;;2.90;99.90;;;;;;6208069;23;20339;-85
2023/11/19 09:42:14;;;;;;;3.67;3.47;;;2.90;99.90;;;;;;6233824;23;20180;-89
2023/11/19 09:44:43;;;;;;;1.70;1.50;;;3.00;99.90;;;;;;6173106;23;20189;-87
2023/11/19 09:47:12;;;;;;;4.72;4.43;;;3.10;99.90;;;;;;6181765;23;20200;-87
2023/11/19 09:49:39;;;;;;;1.50;1.50;;;3.10;99.90;;;;;;6177545;23;20164;-81
2023/11/19 09:52:07;;;;;;;0.77;0.77;;;3.10;99.90;;;;;;6203572;23;20180;-85
2023/11/19 09:54:34;;;;;;;1.08;1.08;;;3.10;99.90;;;;;;6199699;23;20205;-85
2023/11/19 09:57:05;;;;;;;2.45;2.05;;;3.20;99.90;;;;;;6198216;23;20232;-84
2023/11/19 09:59:33;;;;;;;2.90;1.23;;;3.20;99.90;;;;;;6202066;23;20484;-83
2023/11/19 10:02:00;;;;;;;6.93;1.90;;;3.20;99.90;;;;;;6204812;23;20378;-85
2023/11/19 10:04:30;;;;;;;0.80;0.80;;;3.20;99.90;;;;;;6201128;23;20183;-89
2023/11/19 10:07:00;;;;;;;0.82;0.82;;;3.20;99.90;;;;;;6172798;23;20181;-82
2023/11/19 10:09:27;;;;;;;2.30;2.20;;;3.30;99.90;;;;;;6172478;23;20240;-87
2023/11/19 10:11:54;;;;;;;1.05;1.05;;;3.50;99.90;;;;;;6197314;23;20191;-85
2023/11/19 10:14:24;;;;;;;2.20;2.10;;;3.40;99.90;;;;;;6197975;23;20423;-84
2023/11/19 10:16:51;;;;;;;2.05;1.92;;;3.50;99.90;;;;;;6196662;23;20169;-86
2023/11/19 10:19:21;;;;;;;1.15;1.15;;;3.60;99.90;;;;;;6198039;23;20181;-82
2023/11/19 10:21:48;;;;;;;1.33;1.23;;;3.60;99.90;;;;;;6171113;23;20169;-86
2023/11/19 10:24:17;;;;;;;0.80;0.80;;;3.80;99.90;;;;;;6171875;23;20177;-81
2023/11/19 10:26:47;;;;;;;10.60;1.63;;;4.00;99.90;;;;;;6199535;23;20169;-86
2023/11/19 10:29:14;;;;;;;0.50;0.50;;;4.10;99.90;;;;;;6197551;23;20165;-81
2023/11/19 10:31:56;;;;;;;0.95;0.95;;;4.10;99.90;;;;;;6171058;23;20729;-84
2023/11/19 10:34:44;;;;;;;1.48;1.48;;;4.20;99.90;;;;;;6175920;23;20200;-83
2023/11/19 10:37:28;;;;;;;0.55;0.55;;;4.30;99.90;;;;;;6169993;23;20188;-84
2023/11/19 10:39:56;;;;;;;1.42;1.42;;;4.30;99.90;;;;;;6196020;23;20192;-83
2023/11/19 10:42:22;;;;;;;8.32;4.20;;;4.40;99.90;;;;;;6197720;23;20197;-82
2023/11/19 10:44:50;;;;;;;8.30;7.47;;;4.40;99.90;;;;;;6200722;23;20177;-82
2023/11/19 10:47:19;;;;;;;2.00;1.90;;;4.40;99.90;;;;;;6197596;23;20184;-84
2023/11/19 10:50:06;;;;;;;1.13;1.13;;;4.40;99.90;;;;;;6174673;23;20489;-81
2023/11/19 10:52:33;;;;;;;1.70;1.40;;;4.40;99.90;;;;;;6196837;23;20184;-84
2023/11/19 10:55:02;;;;;;;0.50;0.50;;;4.30;99.90;;;;;;6197234;23;20203;-87
2023/11/19 10:57:32;;;;;;;1.00;1.00;;;4.30;99.90;;;;;;6197668;23;20180;-84
2023/11/19 11:00:03;;;;;;;0.88;0.88;;;4.30;99.90;;;;;;6196517;23;20167;-83
2023/11/19 11:02:36;;;;;;;2.42;2.30;;;4.30;99.90;;;;;;6171088;23;20173;-83
2023/11/19 11:05:05;;;;;;;2.15;2.05;;;4.20;99.90;;;;;;6203717;23;20189;-83
2023/11/19 11:07:34;;;;;;;1.25;1.15;;;4.30;99.90;;;;;;6179339;23;20187;-87
2023/11/19 11:10:09;;;;;;;2.78;2.67;;;4.40;99.90;;;;;;6205473;23;20165;-85
2023/11/19 11:12:41;;;;;;;0.93;0.93;;;4.20;99.90;;;;;;6212017;23;20229;-83
2023/11/19 11:15:12;;;;;;;2.40;1.35;;;4.10;99.90;;;;;;6212402;23;20237;-82
2023/11/19 11:17:44;;;;;;;1.23;1.23;;;4.10;99.90;;;;;;6150443;23;20205;-85
2023/11/19 11:20:14;;;;;;;1.08;0.98;;;4.10;99.90;;;;;;6143251;23;20163;-90
2023/11/19 11:23:01;;;;;;;1.13;0.93;;;4.10;99.90;;;;;;6161843;23;20170;-88
2023/11/19 11:26:04;;;;;;;1.38;1.33;;;4.20;99.90;;;;;;6137232;23;20476;-86
2023/11/19 11:28:56;;;;;;;0.50;0.50;;;4.10;99.90;;;;;;6139106;23;20205;-86
2023/11/19 11:31:29;;;;;;;0.70;0.70;;;4.10;99.90;;;;;;6140263;23;20502;-81
2023/11/19 11:34:08;;;;;;;1.45;1.38;;;4.10;99.90;;;;;;6165979;23;20230;-85
2023/11/19 11:37:05;;;;;;;5.90;2.70;;;4.10;99.90;;;;;;6141390;23;20173;-83
2023/11/19 11:39:36;;;;;;;1.88;1.73;;;4.20;99.90;;;;;;6142605;23;20371;-88
2023/11/19 11:42:24;;;;;;;0.88;0.88;;;4.10;99.90;;;;;;6139310;23;20494;-90
2023/11/19 11:45:11;;;;;;;1.58;1.50;;;4.20;99.90;;;;;;6139579;23;20233;-87
2023/11/19 11:47:44;;;;;;;2.47;2.38;;;4.20;99.90;;;;;;6139344;23;20178;-89
2023/11/19 11:52:57;;;;;;;2.50;2.40;;;4.30;99.90;;;;;;6195772;23;20192;-91
2023/11/19 11:55:28;;;;;;;1.77;1.67;;;4.40;99.90;;;;;;6177630;23;20231;-89
2023/11/19 11:57:55;;;;;;;1.15;1.15;;;4.40;99.90;;;;;;6202003;23;20173;-87
2023/11/19 12:00:28;;;;;;;2.03;1.92;;;4.40;99.90;;;;;;6200652;23;20169;-87
2023/11/19 12:02:59;;;;;;;2.45;2.25;;;4.60;99.90;;;;;;6176159;23;20176;-86
2023/11/19 12:05:28;;;;;;;0.90;0.90;;;4.40;99.90;;;;;;6202287;23;20236;-86
2023/11/19 12:07:58;;;;;;;0.85;0.85;;;4.40;99.90;;;;;;6179690;23;20181;-85
2023/11/19 12:10:25;;;;;;;2.00;1.83;;;4.50;99.90;;;;;;6203837;23;20173;-89
2023/11/19 12:12:58;;;;;;;0.80;0.80;;;4.60;99.90;;;;;;6178020;23;20173;-91
2023/11/19 12:15:27;;;;;;;0.80;0.80;;;4.90;99.90;;;;;;6205346;23;20248;-90
2023/11/19 12:17:56;;;;;;;4.88;4.47;;;4.90;99.90;;;;;;6205880;23;20259;-88
2023/11/19 12:20:27;;;;;;;1.15;1.15;;;4.90;99.90;;;;;;6181272;23;20153;-88
2023/11/19 12:22:57;;;;;;;1.98;1.77;;;5.00;99.90;;;;;;6199312;23;20206;-86
2023/11/19 12:25:24;;;;;;;3.83;2.42;;;5.00;99.90;;;;;;6232873;23;20195;-87
2023/11/19 12:27:54;;;;;;;0.65;0.65;;;5.00;99.90;;;;;;6205699;23;20214;-86
2023/11/19 12:30:25;;;;;;;1.20;1.20;;;5.10;99.90;;;;;;6227178;23;20219;-85
2023/11/19 12:32:54;;;;;;;2.30;2.20;;;5.10;99.90;;;;;;6232267;23;20160;-87
2023/11/19 12:35:22;;;;;;;1.42;1.40;;;5.30;99.90;;;;;;6204318;23;20203;-85
2023/11/19 12:37:51;;;;;;;2.03;1.88;;;5.50;99.90;;;;;;6199090;23;20414;-84
2023/11/19 12:40:23;;;;;;;1.85;1.75;;;5.40;99.90;;;;;;6227333;23;20200;-84
2023/11/19 12:42:52;;;;;;;0.50;0.50;;;5.30;99.90;;;;;;6226914;23;20228;-83
2023/11/19 12:45:20;;;;;;;1.10;1.10;;;5.30;99.90;;;;;;6225020;23;20364;-83
2023/11/19 12:47:49;;;;;;;0.60;0.60;;;5.50;99.90;;;;;;6225993;23;20173;-85
2023/11/19 12:50:18;;;;;;;0.90;0.90;;;5.50;99.90;;;;;;6232536;23;20196;-84
2023/11/19 12:52:58;;;;;;;0.50;0.50;;;5.50;99.90;;;;;;6208755;23;20195;-82
2023/11/19 12:55:27;;;;;;;0.60;0.60;;;5.50;99.90;;;;;;6234228;23;20196;-84
2023/11/19 12:57:58;;;;;;;0.80;0.80;;;5.50;99.90;;;;;;6204319;23;20211;-85
2023/11/19 13:00:26;;;;;;;0.90;0.90;;;5.50;99.90;;;;;;6225411;23;20180;-85
2023/11/19 13:02:55;;;;;;;0.70;0.70;;;5.60;99.90;;;;;;6230848;23;20183;-85
2023/11/19 13:05:28;;;;;;;0.93;0.93;;;5.70;99.90;;;;;;6230120;23;20188;-85
2023/11/19 13:08:15;;;;;;;0.95;0.95;;;5.70;99.90;;;;;;6230113;23;20215;-85
2023/11/19 13:10:48;;;;;;;1.20;1.20;;;5.70;99.90;;;;;;6208999;23;20188;-82
2023/11/19 13:13:15;;;;;;;1.92;1.83;;;5.70;99.90;;;;;;6228080;23;20176;-85
2023/11/19 13:15:44;;;;;;;1.02;1.02;;;5.80;99.90;;;;;;6229139;23;20204;-85
2023/11/19 13:18:12;;;;;;;0.70;0.70;;;5.80;99.90;;;;;;6226635;23;20173;-87
2023/11/19 13:20:40;;;;;;;0.60;0.60;;;5.90;99.90;;;;;;6205821;23;20172;-85
2023/11/19 13:23:07;;;;;;;1.25;1.25;;;5.80;99.90;;;;;;6227049;23;20385;-87
2023/11/19 13:25:34;;;;;;;2.05;1.95;;;5.90;99.90;;;;;;6226074;23;20164;-86
2023/11/19 13:28:02;;;;;;;0.70;0.70;;;5.90;99.90;;;;;;6228845;23;20207;-84
2023/11/19 13:30:32;;;;;;;0.73;0.73;;;6.00;99.90;;;;;;6232206;23;20161;-87
2023/11/19 13:33:00;;;;;;;3.13;2.92;;;6.00;99.90;;;;;;6231460;23;20168;-88
2023/11/19 13:35:28;;;;;;;2.63;2.53;;;6.20;99.90;;;;;;6233681;23;20228;-87
2023/11/19 13:37:55;;;;;;;0.90;0.90;;;6.30;99.90;;;;;;6225696;23;20364;-85
2023/11/19 13:40:24;;;;;;;0.57;0.57;;;6.40;99.90;;;;;;6226017;23;20179;-84
2023/11/19 13:42:52;;;;;;;2.45;2.35;;;6.40;99.90;;;;;;6229796;23;20176;-84
2023/11/19 13:45:20;;;;;;;0.40;0.40;;;6.30;99.90;;;;;;6228284;23;20243;-83
2023/11/19 13:47:48;;;;;;;0.65;0.65;;;6.40;99.90;;;;;;6228086;23;20176;-84
2023/11/19 13:50:16;;;;;;;0.63;0.63;;;6.40;99.90;;;;;;6227612;23;20216;-86
2023/11/19 13:52:46;;;;;;;0.93;0.93;;;6.50;99.90;;;;;;6226248;23;20176;-83
2023/11/19 13:55:13;;;;;;;1.15;1.15;;;6.60;99.90;;;;;;6228316;23;20213;-84
2023/11/19 13:57:42;;;;;;;1.23;1.23;;;6.80;99.90;;;;;;6223401;23;20239;-84